Date,TemperatureHighF,TemperatureAvgF,TemperatureLowF,DewpointHighF,DewpointAvgF,DewpointLowF,HumidityHigh,HumidityAvg,HumidityLow,PressureMaxIn,PressureMinIn,WindSpeedMaxMPH,WindSpeedAvgMPH,GustSpeedMaxMPH,PrecipitationSumIn
2013-3-1,41,38,35,38,35,33,96,89,78,29.77,29.59,17,-6,17,0.09
2013-3-2,38,36,34,33,31,29,86,80,73,29.78,29.70,21,-6,22,0.00
2013-3-3,35,33,31,30,27,24,83,78,67,29.73,29.66,18,-4,18,0.00
2013-3-4,40,35,30,32,27,23,80,74,68,29.86,29.73,26,3,27,0.00
2013-3-5,43,38,32,36,31,26,89,76,62,30.08,29.86,22,-7,22,0.00
2013-3-6,42,39,34,37,35,32,93,86,75,30.06,29.90,38,5,38,0.02
2013-3-7,39,36,33,34,33,31,98,89,77,30.04,29.90,35,8,36,0.01
2013-3-8,40,35,32,37,33,31,99,95,72,30.15,29.97,30,2,30,0.22
2013-3-9,51,40,35,35,32,26,89,73,38,30.38,30.15,23,0,23,0.01
2013-3-10,46,38,34,38,34,30,94,84,69,30.44,30.35,12,-5,13,0.00
2013-3-11,54,44,34,47,41,33,100,89,76,30.38,30.17,11,-5,13,0.00
2013-3-12,54,50,42,52,49,41,99,94,85,30.17,29.74,30,-2,30,0.88
2013-3-13,45,41,37,42,36,33,98,82,66,29.89,29.81,15,-6,15,0.00
2013-3-14,39,34,31,35,24,17,90,67,54,29.94,29.86,32,2,32,0.00
2013-3-15,42,36,31,35,25,16,84,64,51,29.99,29.75,22,-4,23,0.00
2013-3-16,40,35,32,32,28,19,93,76,50,29.93,29.78,21,-3,21,0.00
2013-3-17,37,34,31,32,22,14,89,61,43,30.34,29.93,24,2,25,0.00
2013-3-18,35,32,26,32,20,11,97,61,43,30.48,30.12,23,-4,24,0.00
2013-3-19,40,37,33,39,36,32,98,97,94,30.12,29.65,30,-7,31,0.67
2013-3-20,42,37,33,36,27,22,94,67,51,29.89,29.79,19,-5,20,0.00
2013-3-21,39,34,31,31,28,20,94,79,56,29.88,29.66,21,-1,21,0.00
2013-3-22,41,35,30,31,25,18,75,66,56,29.87,29.71,24,-7,25,0.00
2013-3-23,43,39,34,33,30,25,78,70,60,29.92,29.78,30,1,30,0.00
2013-3-24,43,38,34,33,29,24,84,68,57,29.96,29.75,22,-7,26,0.00
2013-3-25,42,38,35,35,33,29,96,79,65,29.79,29.47,25,1,25,0.02
2013-3-26,48,41,37,38,34,32,88,77,55,29.87,29.57,23,-6,23,0.02
2013-3-27,47,41,36,38,34,28,86,75,63,29.95,29.85,13,-6,13,0.00
2013-3-28,46,41,38,40,36,33,91,84,77,30.11,29.94,13,-3,13,0.00
2013-3-29,49,43,39,38,37,35,91,78,63,30.15,30.06,16,-3,17,0.00
2013-3-30,52,44,38,39,35,29,87,72,43,30.18,30.10,11,-7,13,0.00
2013-3-31,57,47,38,46,39,32,97,76,40,30.19,29.67,20,3,20,0.14